Terminal Aerodrome Forecast
Issued by NWS

Home | Current Version | Previous Version | Text Only | Print | Product List | Glossary On
Versions: 1 2 3 4 5 6 7 8 9 10 11 12 13 14 15 16 17 18 19
000
FTUS43 KLSX 261900 AAA
TAFCPS
TAF AMD
KCPS 261907Z 2619/2718 15007KT 3/4SM -SN BR OVC010
     FM262300 17005KT 5SM -SNRA BR OVC015
     FM270100 29006KT 6SM BR VCSH OVC015
     FM270600 32010KT P6SM OVC015
     FM271400 31010KT P6SM BKN020=

USA.gov is the U.S. government's official web portal to all federal, state and local government web resources and services.